Time;durP1;ratioP1;P1;durP2;ratioP2;P2;SDS_P1;SDS_P2;PMS_P1;PMS_P2;Temp;Humidity;BMP_temperature;BMP_pressure;BME280_temperature;BME280_humidity;BME280_pressure;Samples;Min_cycle;Max_cycle;Signal;HPM_P1;HPM_P2
2022/08/19 00:00:09;;;;;;;14.68;8.13;;;;;;;24.22;63.02;98671.75;8490303;27;20038;-83
2022/08/19 00:04:36;;;;;;;11.68;7.45;;;;;;;24.15;63.24;98666.28;8518375;27;20103;-82
2022/08/19 00:08:37;;;;;;;13.00;8.10;;;;;;;24.09;63.13;98667.91;8527148;27;20411;-82
2022/08/19 00:12:38;;;;;;;13.60;8.60;;;;;;;24.07;63.13;98660.03;8503955;27;20051;-82
2022/08/19 00:16:41;;;;;;;13.65;8.95;;;;;;;24.07;63.19;98660.03;8507369;27;20070;-82
2022/08/19 00:20:44;;;;;;;21.42;9.38;;;;;;;24.05;63.47;98650.63;8450779;27;20100;-83
2022/08/19 00:24:46;;;;;;;13.13;7.53;;;;;;;24.04;63.09;98644.31;8505878;27;20043;-82
2022/08/19 00:28:47;;;;;;;16.80;8.25;;;;;;;24.04;63.32;98632.50;8510349;27;20043;-83
2022/08/19 00:32:48;;;;;;;13.63;7.43;;;;;;;23.99;63.31;98631.78;8504655;27;20141;-82
2022/08/19 00:36:49;;;;;;;13.23;8.32;;;;;;;23.93;63.39;98627.88;8510812;27;21206;-82
2022/08/19 00:40:50;;;;;;;12.75;8.05;;;;;;;23.89;63.61;98624.38;8527612;27;20082;-83
2022/08/19 00:44:51;;;;;;;12.52;8.30;;;;;;;23.85;63.69;98604.31;8526571;27;20039;-82
2022/08/19 00:48:52;;;;;;;12.93;8.07;;;;;;;23.81;63.77;98608.31;8504716;27;20106;-86
2022/08/19 00:52:53;;;;;;;13.68;8.52;;;;;;;23.79;64.13;98594.94;8484101;27;20122;-83
2022/08/19 00:56:54;;;;;;;11.00;7.95;;;;;;;23.73;64.21;98584.75;8497271;27;20053;-82
2022/08/19 01:00:55;;;;;;;13.35;8.60;;;;;;;23.70;64.31;98597.38;8475235;27;20051;-83
2022/08/19 01:04:57;;;;;;;10.45;7.32;;;;;;;23.63;64.20;98586.44;8484254;27;20696;-83
2022/08/19 01:08:59;;;;;;;14.93;8.20;;;;;;;23.60;64.53;98587.22;8488083;27;20852;-83
2022/08/19 01:13:01;;;;;;;12.77;8.07;;;;;;;23.57;64.54;98582.53;8505258;27;20066;-84
2022/08/19 01:17:02;;;;;;;14.23;8.75;;;;;;;23.52;64.80;98580.22;8519115;27;20130;-82
2022/08/19 01:21:09;;;;;;;13.15;8.85;;;;;;;23.50;65.02;98563.31;8504500;27;20047;-83
2022/08/19 01:25:10;;;;;;;11.43;8.50;;;;;;;23.47;65.37;98566.88;8499824;27;20480;-83
2022/08/19 01:29:14;;;;;;;14.73;8.70;;;;;;;23.45;65.37;98563.72;8506398;27;20126;-82
2022/08/19 01:33:15;;;;;;;11.80;8.98;;;;;;;23.48;65.35;98568.44;8517239;27;20043;-82
2022/08/19 01:37:16;;;;;;;12.63;8.75;;;;;;;23.50;65.83;98566.06;8442095;27;20039;-82
2022/08/19 01:41:18;;;;;;;11.50;8.75;;;;;;;23.52;65.29;98570.00;8506300;27;20047;-81
2022/08/19 01:45:24;;;;;;;13.25;8.82;;;;;;;23.53;65.36;98554.22;8508396;27;20038;-82
2022/08/19 01:49:26;;;;;;;11.52;8.50;;;;;;;23.52;65.65;98547.16;8491134;27;20047;-83
2022/08/19 01:53:27;;;;;;;13.68;9.02;;;;;;;23.47;66.22;98544.84;8516637;27;20039;-82
2022/08/19 01:57:29;;;;;;;13.88;9.20;;;;;;;23.42;66.29;98537.00;8516421;27;20459;-83
2022/08/19 02:01:31;;;;;;;16.10;9.98;;;;;;;23.38;66.34;98531.50;8459838;27;20080;-84
2022/08/19 02:05:32;;;;;;;16.42;10.40;;;;;;;23.34;67.10;98507.91;8508973;27;20073;-82
2022/08/19 02:09:33;;;;;;;17.05;10.32;;;;;;;23.20;68.68;98502.56;8523485;27;20480;-82
2022/08/19 02:13:34;;;;;;;15.23;10.13;;;;;;;23.02;69.58;98486.94;8474866;27;20078;-83
2022/08/19 02:17:35;;;;;;;17.27;9.68;;;;;;;22.93;69.83;98500.41;8473477;27;20046;-82
2022/08/19 02:21:37;;;;;;;13.60;9.65;;;;;;;22.86;69.86;98500.44;8508943;27;20133;-83
2022/08/19 02:25:39;;;;;;;14.20;9.50;;;;;;;22.84;70.08;98500.06;8531489;27;20055;-82
2022/08/19 02:29:40;;;;;;;19.90;10.82;;;;;;;22.83;70.08;98506.78;8518450;27;20046;-82
2022/08/19 02:33:44;;;;;;;14.63;9.98;;;;;;;22.84;69.86;98513.84;8525540;27;20086;-83
2022/08/19 02:42:05;;;;;;;14.55;11.05;;;;;;;22.77;70.06;98516.66;8524528;27;20042;-84
2022/08/19 02:46:20;;;;;;;14.77;10.85;;;;;;;22.71;70.38;98499.00;8494556;27;20043;-82
2022/08/19 02:50:21;;;;;;;15.75;10.65;;;;;;;22.68;70.55;98499.78;8504479;27;20051;-82
2022/08/19 02:54:22;;;;;;;17.40;11.13;;;;;;;22.62;70.64;98491.16;8511108;27;20878;-81
2022/08/19 02:58:23;;;;;;;16.23;11.23;;;;;;;22.55;70.89;98495.94;8509970;27;20090;-83
2022/08/19 03:02:24;;;;;;;17.25;11.13;;;;;;;22.51;71.04;98489.66;8510083;27;20043;-85
2022/08/19 03:06:27;;;;;;;17.17;10.98;;;;;;;22.45;71.30;98491.28;8520523;27;20042;-82
2022/08/19 03:10:27;;;;;;;15.98;10.65;;;;;;;22.41;71.73;98496.03;8514364;27;20872;-84
2022/08/19 03:14:31;;;;;;;19.10;11.30;;;;;;;22.36;71.91;98507.44;8530254;27;20133;-83
2022/08/19 03:18:32;;;;;;;18.15;11.98;;;;;;;22.33;71.89;98501.56;8510901;27;20496;-82
2022/08/19 03:22:33;;;;;;;18.35;11.32;;;;;;;22.31;72.27;98503.91;8510213;27;20043;-82
2022/08/19 03:26:34;;;;;;;16.10;11.90;;;;;;;22.25;72.63;98500.03;8512723;27;20042;-82
2022/08/19 03:30:35;;;;;;;18.08;11.98;;;;;;;22.23;72.72;98507.91;8504775;27;20043;-83
2022/08/19 03:34:37;;;;;;;17.98;11.02;;;;;;;22.20;72.84;98508.72;8509187;27;20047;-85
2022/08/19 03:38:42;;;;;;;17.30;11.88;;;;;;;22.17;73.08;98509.50;8520551;27;20047;-86
2022/08/19 03:42:43;;;;;;;17.33;11.88;;;;;;;22.13;73.35;98522.47;8526386;27;20042;-83
2022/08/19 03:46:45;;;;;;;18.38;12.45;;;;;;;22.10;73.29;98531.50;8523653;27;20130;-84
2022/08/19 03:50:46;;;;;;;18.77;11.82;;;;;;;22.07;73.75;98526.81;8520954;27;20047;-86
2022/08/19 03:54:47;;;;;;;17.85;12.27;;;;;;;22.04;73.90;98530.38;8505433;27;20426;-84
2022/08/19 03:58:48;;;;;;;19.23;11.82;;;;;;;22.02;74.17;98529.97;8519334;27;20039;-86
2022/08/19 04:02:49;;;;;;;16.33;12.32;;;;;;;21.99;74.44;98530.00;8515579;27;20046;-88
2022/08/19 04:06:51;;;;;;;18.00;12.13;;;;;;;21.95;74.56;98524.50;8521323;27;20118;-84
2022/08/19 04:10:52;;;;;;;23.25;12.80;;;;;;;21.97;74.42;98527.66;8518383;27;20042;-84
2022/08/19 04:14:53;;;;;;;20.98;13.00;;;;;;;21.99;74.55;98536.28;8527387;27;20047;-86
2022/08/19 04:18:55;;;;;;;21.50;12.82;;;;;;;21.99;74.60;98541.78;8510394;27;20054;-84
2022/08/19 04:22:56;;;;;;;21.63;13.23;;;;;;;21.99;74.75;98550.03;8501201;27;20479;-86
2022/08/19 04:27:00;;;;;;;23.63;13.77;;;;;;;21.99;75.17;98552.78;8528112;27;20054;-87
2022/08/19 04:31:00;;;;;;;16.17;13.05;;;;;;;22.00;75.06;98559.81;8508152;27;20043;-84
2022/08/19 04:35:02;;;;;;;21.35;13.65;;;;;;;22.00;75.29;98557.06;8488071;27;20164;-84
2022/08/19 04:39:09;;;;;;;19.02;13.02;;;;;;;22.03;75.39;98564.56;8527972;27;20050;-84
2022/08/19 04:43:12;;;;;;;21.15;13.57;;;;;;;22.03;75.57;98550.81;8524308;27;20413;-85
2022/08/19 04:47:13;;;;;;;21.25;12.90;;;;;;;22.08;75.60;98561.38;8520025;27;20078;-85
2022/08/19 04:51:15;;;;;;;24.13;12.90;;;;;;;22.11;75.61;98566.09;8524810;27;20047;-84
2022/08/19 05:07:00;;;;;;;20.25;13.48;;;;;;;22.33;76.05;98551.06;8349096;27;1432897;-77
2022/08/19 05:11:07;;;;;;;17.67;13.10;;;;;;;22.32;75.91;98549.50;8382641;28;20055;-77
2022/08/19 05:15:09;;;;;;;20.52;14.07;;;;;;;22.32;75.86;98533.00;8363354;28;20122;-77
2022/08/19 05:23:29;;;;;;;23.23;14.15;;;;;;;22.33;75.71;98540.06;8337336;28;20623;-76
2022/08/19 05:27:30;;;;;;;19.35;14.52;;;;;;;22.38;75.51;98535.31;8370975;28;20045;-77
2022/08/19 05:31:31;;;;;;;24.40;14.05;;;;;;;22.43;75.67;98532.16;8380667;28;20494;-76
2022/08/19 05:35:33;;;;;;;23.85;14.68;;;;;;;22.45;75.98;98551.81;8354535;28;20037;-76
2022/08/19 05:39:36;;;;;;;23.63;13.90;;;;;;;22.52;75.71;98551.78;8354479;28;20055;-76
2022/08/19 05:43:37;;;;;;;28.40;14.57;;;;;;;22.60;75.48;98553.28;8365220;28;20037;-76
2022/08/19 05:47:37;;;;;;;21.92;14.73;;;;;;;22.60;75.71;98542.28;8375027;28;20056;-76
2022/08/19 05:51:38;;;;;;;24.83;13.43;;;;;;;22.63;75.57;98547.00;8371888;28;20065;-77
2022/08/19 05:55:39;;;;;;;22.35;15.20;;;;;;;22.68;75.86;98554.84;8370357;28;20041;-76
2022/08/19 05:59:41;;;;;;;22.63;15.02;;;;;;;22.74;75.86;98569.75;8370034;28;20057;-76
2022/08/19 06:03:43;;;;;;;21.08;15.45;;;;;;;22.75;75.53;98571.31;8386148;28;20052;-76
2022/08/19 06:07:44;;;;;;;26.30;14.88;;;;;;;22.79;75.57;98561.06;8352644;28;20037;-76
2022/08/19 06:11:54;;;;;;;21.15;15.52;;;;;;;22.84;75.62;98551.63;8304962;28;20515;-76
2022/08/19 06:15:55;;;;;;;23.33;14.55;;;;;;;22.90;75.41;98561.78;8336474;28;20044;-76
2022/08/19 06:19:56;;;;;;;26.77;15.10;;;;;;;22.95;75.21;98572.38;8352944;28;20076;-76
2022/08/19 06:23:58;;;;;;;21.75;15.20;;;;;;;23.00;75.64;98571.94;8363159;28;20045;-76
2022/08/19 06:27:59;;;;;;;23.13;14.38;;;;;;;23.11;75.44;98594.69;8362138;28;20037;-77
2022/08/19 06:32:02;;;;;;;23.48;14.75;;;;;;;23.13;75.05;98592.31;8349664;28;20037;-76
2022/08/19 06:36:04;;;;;;;22.48;15.23;;;;;;;23.13;75.25;98592.31;8340923;28;20080;-76
2022/08/19 06:40:08;;;;;;;23.10;15.05;;;;;;;23.15;75.06;98605.69;8346928;28;20498;-77
2022/08/19 06:44:09;;;;;;;20.60;14.95;;;;;;;23.16;75.19;98607.22;8352504;28;20048;-77
2022/08/19 06:48:10;;;;;;;22.13;14.20;;;;;;;23.23;75.34;98614.66;8362212;28;20049;-76
2022/08/19 06:52:12;;;;;;;23.98;13.95;;;;;;;23.31;75.03;98624.47;8349274;28;20518;-77
2022/08/19 06:56:20;;;;;;;34.45;14.68;;;;;;;23.35;75.05;98630.72;8297783;28;20103;-74
2022/08/19 07:00:21;;;;;;;24.00;14.18;;;;;;;23.42;74.93;98647.22;8348819;28;20037;-74
2022/08/19 07:04:26;;;;;;;20.52;13.93;;;;;;;23.54;74.58;98660.50;8361468;28;20053;-74
2022/08/19 07:08:28;;;;;;;26.02;14.82;;;;;;;23.62;74.32;98667.56;8359698;28;20060;-73
2022/08/19 07:12:33;;;;;;;25.20;14.00;;;;;;;23.71;73.83;98676.13;8333123;28;20045;-73
2022/08/19 07:16:34;;;;;;;26.73;14.65;;;;;;;23.83;73.91;98672.91;8342956;28;20486;-74
2022/08/19 07:20:36;;;;;;;18.63;13.55;;;;;;;23.96;73.24;98682.22;8311956;28;20034;-74
2022/08/19 07:24:37;;;;;;;23.73;14.07;;;;;;;24.11;72.68;98682.84;8341051;28;20037;-75
2022/08/19 07:28:39;;;;;;;22.58;14.23;;;;;;;24.21;72.09;98675.72;8359023;28;20123;-76
2022/08/19 07:32:40;;;;;;;22.63;12.98;;;;;;;24.32;71.70;98681.91;8347805;28;20041;-75
2022/08/19 07:36:42;;;;;;;23.08;13.23;;;;;;;24.41;70.84;98696.00;8352738;28;20052;-76
2022/08/19 07:40:45;;;;;;;20.08;12.55;;;;;;;24.51;70.36;98699.84;8342788;28;20072;-76
2022/08/19 07:44:47;;;;;;;23.88;12.68;;;;;;;24.63;70.30;98697.34;8333041;28;20178;-75
2022/08/19 07:48:49;;;;;;;20.58;12.60;;;;;;;24.75;69.63;98699.53;8340063;28;20493;-75
2022/08/19 07:52:51;;;;;;;22.50;11.77;;;;;;;24.89;69.27;98698.63;8335036;28;20042;-76
2022/08/19 07:56:52;;;;;;;20.52;11.93;;;;;;;25.00;68.99;98706.78;8345426;28;20488;-75
2022/08/19 08:00:54;;;;;;;19.73;12.05;;;;;;;25.17;68.82;98714.03;8339214;28;20045;-76
2022/08/19 08:09:22;;;;;;;27.27;11.75;;;;;;;25.50;66.24;98715.94;8334586;28;20116;-75
2022/08/19 08:13:24;;;;;;;26.70;11.15;;;;;;;25.61;65.47;98722.13;8330927;28;20034;-74
2022/08/19 08:17:27;;;;;;;20.17;10.93;;;;;;;25.74;65.99;98724.31;8321007;28;20059;-75
2022/08/19 08:21:27;;;;;;;23.83;10.40;;;;;;;25.84;64.95;98712.28;8355769;28;20409;-75
2022/08/19 08:25:29;;;;;;;29.85;10.52;;;;;;;25.94;64.38;98722.38;8351823;28;20465;-75
2022/08/19 08:29:30;;;;;;;20.45;10.70;;;;;;;26.10;64.46;98730.81;8359322;28;20505;-75
2022/08/19 08:33:31;;;;;;;14.57;10.80;;;;;;;26.23;63.95;98726.25;8359432;28;20064;-75
2022/08/19 08:37:33;;;;;;;19.52;10.50;;;;;;;26.29;63.81;98732.88;8333695;28;20045;-75
2022/08/19 08:41:40;;;;;;;20.15;10.63;;;;;;;26.40;63.16;98722.38;8310874;28;20048;-75
2022/08/19 08:46:21;;;;;;;17.77;10.80;;;;;;;26.66;63.46;98722.69;8318294;28;20056;-76
2022/08/19 08:50:35;;;;;;;15.52;9.02;;;;;;;26.79;61.43;98707.00;8319698;28;20389;-74
2022/08/19 08:54:40;;;;;;;18.83;9.40;;;;;;;26.94;60.39;98722.16;8342187;28;20080;-75
2022/08/19 08:59:09;;;;;;;16.60;9.40;;;;;;;27.04;60.20;98726.69;8340612;28;20098;-75
2022/08/19 09:03:14;;;;;;;;;;;;;;;27.07;60.11;98731.38;8177571;29;20516;-76
2022/08/19 09:07:42;;;;;;;21.77;9.63;;;;;;;27.14;60.41;98714.59;8160134;29;20316;-76
2022/08/19 09:12:00;;;;;;;20.95;9.88;;;;;;;27.35;59.48;98707.00;8162536;29;20078;-76
2022/08/19 09:16:06;;;;;;;14.63;10.27;;;;;;;27.61;58.89;98714.38;8176127;29;20047;-76
2022/08/19 09:20:10;;;;;;;17.95;10.32;;;;;;;27.72;58.91;98720.44;8162697;29;20073;-76
2022/08/19 09:24:11;;;;;;;18.00;10.07;;;;;;;27.86;58.76;98714.56;8144821;29;20051;-76
2022/08/19 09:28:12;;;;;;;22.98;10.80;;;;;;;27.98;58.63;98699.97;8165310;29;20071;-75
2022/08/19 09:32:13;;;;;;;21.27;9.88;;;;;;;28.08;58.49;98698.91;8162525;29;20138;-76
2022/08/19 09:36:15;;;;;;;21.65;10.35;;;;;;;28.28;58.01;98689.72;8186625;29;20051;-77
2022/08/19 09:40:17;;;;;;;17.48;9.55;;;;;;;28.41;57.86;98698.88;8304294;28;20049;-76
2022/08/19 09:44:20;;;;;;;20.80;9.23;;;;;;;28.42;57.18;98703.22;8351512;28;20053;-75
2022/08/19 09:48:21;;;;;;;14.75;8.15;;;;;;;28.49;56.64;98711.38;8363919;28;20037;-77
2022/08/19 09:52:22;;;;;;;16.83;8.38;;;;;;;28.58;56.92;98707.94;8365588;28;20136;-76
2022/08/19 09:56:23;;;;;;;12.57;7.88;;;;;;;28.76;55.88;98714.63;8357281;28;20055;-75
2022/08/19 10:00:24;;;;;;;14.75;8.25;;;;;;;28.95;55.16;98716.44;8350623;28;20052;-77
2022/08/19 10:05:47;;;;;;;14.07;9.15;;;;;;;29.11;54.43;98717.56;8323527;28;20502;-76
2022/08/19 10:08:47;;;;;;;21.92;9.00;;;;;;;29.23;55.01;98722.38;8358501;28;20041;-76
2022/08/19 10:12:48;;;;;;;21.08;8.93;;;;;;;29.33;55.58;98721.31;8349591;28;20038;-76
2022/08/19 10:16:51;;;;;;;15.02;8.30;;;;;;;29.31;53.36;98720.94;8344552;28;20049;-76
2022/08/19 10:21:01;;;;;;;9.50;7.45;;;;;;;29.30;52.94;98730.50;8303575;28;20065;-78
2022/08/19 10:25:03;;;;;;;20.77;7.35;;;;;;;29.42;52.25;98721.41;8364357;28;20045;-77
2022/08/19 10:29:05;;;;;;;16.63;7.57;;;;;;;29.48;51.73;98719.66;8354461;28;20576;-77
2022/08/19 10:33:06;;;;;;;15.32;7.78;;;;;;;29.52;50.73;98720.31;8357421;28;20052;-76
2022/08/19 10:37:07;;;;;;;17.30;8.15;;;;;;;29.69;50.81;98735.66;8304199;28;20400;-77
2022/08/19 10:41:13;;;;;;;13.82;7.47;;;;;;;29.76;49.63;98738.22;8358874;28;20045;-76
2022/08/19 10:45:14;;;;;;;19.52;7.88;;;;;;;29.87;49.17;98734.31;8342224;28;20040;-76
2022/08/19 10:49:14;;;;;;;11.95;8.35;;;;;;;29.90;48.62;98728.66;8361780;28;20112;-76
2022/08/19 10:53:15;;;;;;;23.80;9.13;;;;;;;30.06;48.68;98725.75;8348497;28;20733;-75
2022/08/19 10:57:16;;;;;;;20.33;8.65;;;;;;;30.10;48.99;98725.59;8356055;28;20052;-76
2022/08/19 11:01:18;;;;;;;15.93;8.30;;;;;;;30.19;49.29;98725.72;8336420;28;20052;-76
2022/08/19 11:05:19;;;;;;;16.38;8.48;;;;;;;30.29;49.36;98724.56;8338254;28;20559;-76
2022/08/19 11:09:24;;;;;;;16.50;7.82;;;;;;;30.40;49.20;98711.06;8329993;28;20037;-75
2022/08/19 11:13:25;;;;;;;15.25;6.65;;;;;;;30.35;46.96;98717.16;8329397;28;20464;-76
2022/08/19 11:17:26;;;;;;;13.45;7.18;;;;;;;30.48;47.36;98709.59;8333421;28;20056;-76
2022/08/19 11:21:40;;;;;;;14.32;6.70;;;;;;;30.59;46.31;98704.41;8329389;28;20068;-77
2022/08/19 11:25:41;;;;;;;10.35;5.40;;;;;;;30.70;45.69;98706.03;8329866;28;20050;-76
2022/08/19 11:29:44;;;;;;;10.50;6.03;;;;;;;30.79;44.31;98697.72;8343741;28;20393;-76
2022/08/19 11:33:46;;;;;;;11.70;5.68;;;;;;;30.96;44.35;98701.88;8328984;28;20126;-76
2022/08/19 11:37:47;;;;;;;11.02;5.53;;;;;;;31.03;44.41;98704.44;8356265;28;20105;-75
2022/08/19 11:41:51;;;;;;;13.95;6.20;;;;;;;31.22;43.79;98708.88;8325590;28;20113;-76
2022/08/19 11:45:53;;;;;;;11.85;5.72;;;;;;;31.19;44.74;98709.78;8274997;28;20068;-76
2022/08/19 11:49:54;;;;;;;12.13;5.53;;;;;;;31.03;43.95;98718.38;8310993;28;20414;-76
2022/08/19 11:53:57;;;;;;;12.85;5.47;;;;;;;31.15;43.56;98720.28;8330698;28;20072;-78
2022/08/19 11:57:58;;;;;;;14.30;5.90;;;;;;;31.07;44.07;98724.59;8329700;28;20061;-76
2022/08/19 12:01:59;;;;;;;20.15;6.22;;;;;;;31.14;44.96;98724.34;8280494;28;20049;-76
2022/08/19 12:06:10;;;;;;;16.13;6.20;;;;;;;31.29;44.84;98725.34;8283236;28;20094;-77
2022/08/19 12:10:10;;;;;;;16.17;6.00;;;;;;;31.00;44.53;98724.81;8323666;28;20045;-75
2022/08/19 12:14:13;;;;;;;13.95;6.18;;;;;;;30.96;44.49;98713.03;8329829;28;20048;-76
2022/08/19 12:18:14;;;;;;;10.95;5.78;;;;;;;31.48;43.81;98708.66;8352358;28;20045;-77
2022/08/19 12:22:15;;;;;;;16.25;6.38;;;;;;;31.82;43.54;98711.31;8327584;28;20045;-76
2022/08/19 12:26:16;;;;;;;19.30;5.88;;;;;;;31.87;44.25;98702.31;8345894;28;20048;-76
2022/08/19 12:30:17;;;;;;;10.15;5.40;;;;;;;31.88;44.13;98698.28;8337696;28;20047;-77
2022/08/19 12:34:19;;;;;;;11.73;5.20;;;;;;;31.69;42.95;98702.25;8355582;28;20132;-76
2022/08/19 12:38:24;;;;;;;19.92;5.90;;;;;;;31.40;43.18;98692.22;8360396;28;20086;-77
2022/08/19 12:42:25;;;;;;;11.65;5.10;;;;;;;31.33;43.45;98703.66;8360192;28;20045;-77
2022/08/19 12:46:26;;;;;;;9.82;5.15;;;;;;;31.32;43.37;98713.25;8357751;28;20067;-75
2022/08/19 12:50:28;;;;;;;13.13;5.10;;;;;;;31.52;42.75;98703.72;8334007;28;20029;-77
2022/08/19 12:54:30;;;;;;;7.65;4.53;;;;;;;31.75;42.92;98722.75;8359592;28;20068;-76
2022/08/19 12:58:32;;;;;;;9.27;4.95;;;;;;;31.89;41.90;98711.00;8359504;28;20135;-76
2022/08/19 13:02:34;;;;;;;14.38;4.47;;;;;;;32.03;41.19;98704.06;8257595;28;20054;-76
2022/08/19 13:06:35;;;;;;;10.27;4.70;;;;;;;32.11;41.12;98703.31;8257921;28;20057;-77
2022/08/19 13:10:38;;;;;;;25.00;5.07;;;;;;;32.16;40.50;98697.09;8226264;28;20090;-76
2022/08/19 13:14:40;;;;;;;8.75;4.35;;;;;;;32.27;40.76;98691.84;8237573;28;20574;-76
2022/08/19 13:18:47;;;;;;;7.65;4.55;;;;;;;32.34;40.15;98690.75;8241729;28;20046;-77
2022/08/19 13:22:48;;;;;;;12.52;4.22;;;;;;;32.44;39.70;98694.31;8249710;28;20042;-77
2022/08/19 13:26:49;;;;;;;18.08;4.80;;;;;;;32.51;39.44;98703.19;8254855;28;20061;-75
2022/08/19 13:35:17;;;;;;;10.32;5.18;;;;;;;33.25;38.32;98693.47;8229115;28;20046;-76
2022/08/19 13:39:19;;;;;;;12.30;3.90;;;;;;;32.81;38.05;98701.47;8249699;28;20134;-76
2022/08/19 13:43:23;;;;;;;14.70;4.85;;;;;;;32.59;39.18;98695.25;8235189;28;20427;-76
2022/08/19 13:47:24;;;;;;;10.60;3.42;;;;;;;32.37;39.84;98694.63;8247317;28;20182;-76
2022/08/19 13:51:25;;;;;;;9.23;3.65;;;;;;;32.23;39.49;98685.63;8263126;28;20069;-77
2022/08/19 13:55:29;;;;;;;9.00;3.40;;;;;;;32.22;39.25;98695.25;8241245;28;20047;-76
2022/08/19 13:59:31;;;;;;;12.00;3.22;;;;;;;32.98;38.67;98699.91;8230275;28;20050;-76
2022/08/19 14:03:33;;;;;;;8.55;3.03;;;;;;;34.39;36.29;98697.06;8229620;28;20076;-77
2022/08/19 14:07:34;;;;;;;13.68;3.50;;;;;;;35.21;35.91;98701.94;8228851;28;20134;-76
2022/08/19 14:11:35;;;;;;;12.32;3.67;;;;;;;34.43;36.02;98702.47;8292979;28;20042;-76
2022/08/19 14:15:37;;;;;;;8.85;3.55;;;;;;;33.36;37.26;98707.75;8337515;28;20041;-75
2022/08/19 14:19:38;;;;;;;10.85;4.10;;;;;;;32.81;38.18;98700.69;8335187;28;20069;-76
2022/08/19 14:23:39;;;;;;;5.90;3.40;;;;;;;32.47;39.34;98696.97;8341654;28;20549;-75
2022/08/19 14:27:41;;;;;;;11.40;4.22;;;;;;;32.24;40.09;98692.00;8323145;28;20041;-76
2022/08/19 14:31:42;;;;;;;9.20;3.90;;;;;;;31.87;40.01;98693.94;8323353;28;20140;-77
2022/08/19 14:35:44;;;;;;;14.82;3.90;;;;;;;31.67;40.74;98688.00;8342238;28;20059;-76
2022/08/19 14:39:45;;;;;;;9.48;4.10;;;;;;;31.46;41.36;98687.56;8356615;28;20051;-77
2022/08/19 14:43:49;;;;;;;15.40;4.47;;;;;;;31.33;42.20;98678.53;8340985;28;20649;-76
2022/08/19 14:47:50;;;;;;;7.90;4.50;;;;;;;31.16;42.63;98671.63;8336609;28;20045;-76
2022/08/19 14:51:51;;;;;;;11.57;4.13;;;;;;;31.00;43.75;98675.41;8339217;28;20185;-77
2022/08/19 14:55:52;;;;;;;8.85;4.32;;;;;;;30.86;44.85;98680.75;8353225;28;20057;-76
2022/08/19 14:59:53;;;;;;;10.80;4.70;;;;;;;30.79;45.91;98675.44;8286671;28;20472;-76
2022/08/19 15:03:54;;;;;;;9.25;4.43;;;;;;;30.71;46.37;98668.56;8340486;28;20081;-77
2022/08/19 15:07:56;;;;;;;12.02;4.47;;;;;;;30.56;46.19;98669.06;8285008;28;20440;-77
2022/08/19 15:11:59;;;;;;;11.57;5.60;;;;;;;30.45;45.88;98668.69;8281880;28;20115;-76
2022/08/19 15:16:00;;;;;;;11.25;5.22;;;;;;;30.36;46.67;98674.16;8330428;28;20049;-76
2022/08/19 15:20:02;;;;;;;10.85;4.65;;;;;;;30.28;46.93;98669.31;8324779;28;20045;-75
2022/08/19 15:24:04;;;;;;;12.77;4.90;;;;;;;30.16;47.54;98673.69;8356363;28;20136;-75
2022/08/19 15:28:05;;;;;;;11.15;4.95;;;;;;;30.06;48.33;98681.19;8362739;28;20087;-76
2022/08/19 15:32:08;;;;;;;10.15;4.90;;;;;;;29.99;48.53;98672.28;8338274;28;20049;-75
2022/08/19 15:36:11;;;;;;;16.83;5.22;;;;;;;29.90;48.57;98672.19;8330727;28;20042;-76
2022/08/19 15:40:12;;;;;;;13.07;5.00;;;;;;;29.85;48.88;98681.09;8316492;28;20167;-76
2022/08/19 15:44:17;;;;;;;10.45;4.60;;;;;;;29.78;49.34;98682.88;8344793;28;20387;-76
2022/08/19 15:48:18;;;;;;;7.82;4.78;;;;;;;29.71;49.99;98676.78;8339332;28;20049;-76
2022/08/19 15:52:20;;;;;;;9.68;5.80;;;;;;;29.63;49.50;98681.78;8340641;28;20132;-76
2022/08/19 15:56:20;;;;;;;16.98;6.20;;;;;;;29.62;50.12;98696.94;8293294;28;20072;-75
2022/08/19 16:09:02;;;;;;;17.40;9.13;;;;;;;29.37;50.56;98696.94;8316052;28;20049;-76
2022/08/19 16:13:04;;;;;;;16.63;9.90;;;;;;;29.18;51.71;98700.69;8345868;28;20065;-76
2022/08/19 16:17:06;;;;;;;20.05;10.25;;;;;;;29.02;52.30;98698.00;8349240;28;20060;-75
2022/08/19 16:21:06;;;;;;;15.55;9.75;;;;;;;28.89;53.15;98698.75;8343818;28;20049;-76
2022/08/19 16:25:08;;;;;;;12.32;10.75;;;;;;;28.74;53.82;98705.94;8348959;28;20428;-76
2022/08/19 16:29:10;;;;;;;21.65;10.98;;;;;;;28.63;54.22;98694.31;8350066;28;20040;-75
2022/08/19 16:33:12;;;;;;;19.35;12.40;;;;;;;28.56;54.48;98694.50;8327613;28;20080;-76
2022/08/19 16:37:14;;;;;;;20.20;12.32;;;;;;;28.45;55.28;98694.00;8310366;28;20467;-75
2022/08/19 16:41:16;;;;;;;15.07;12.70;;;;;;;28.35;55.41;98695.06;8345970;28;20044;-75
2022/08/19 16:45:18;;;;;;;19.90;12.93;;;;;;;28.30;55.88;98709.50;8333401;28;20041;-75
2022/08/19 16:49:19;;;;;;;20.05;13.38;;;;;;;28.30;56.20;98715.03;8348608;28;20052;-74
2022/08/19 16:53:25;;;;;;;17.67;13.90;;;;;;;28.29;57.69;98713.50;8300890;28;20435;-75
2022/08/19 16:57:26;;;;;;;17.70;15.05;;;;;;;28.24;59.59;98711.25;8335721;28;20041;-75
2022/08/19 17:01:27;;;;;;;25.60;15.73;;;;;;;28.16;60.14;98710.66;8344598;28;20497;-75
2022/08/19 17:05:28;;;;;;;19.35;14.50;;;;;;;27.96;62.23;98719.06;8291366;28;20053;-76
2022/08/19 17:09:31;;;;;;;17.95;14.52;;;;;;;27.89;63.00;98719.25;8317083;28;20049;-76
2022/08/19 17:13:32;;;;;;;28.23;15.00;;;;;;;27.83;63.26;98726.53;8316758;28;20053;-76
2022/08/19 17:17:33;;;;;;;24.67;15.63;;;;;;;27.70;63.25;98728.44;8306007;28;20137;-75
2022/08/19 17:21:36;;;;;;;21.27;15.93;;;;;;;27.63;64.08;98734.13;8310520;28;20045;-77
2022/08/19 17:25:37;;;;;;;18.85;15.48;;;;;;;27.56;64.35;98739.84;8300344;28;20383;-75
2022/08/19 17:29:38;;;;;;;22.63;15.25;;;;;;;27.45;64.39;98745.59;8298363;28;20042;-75
2022/08/19 17:33:39;;;;;;;22.05;16.23;;;;;;;27.33;64.84;98748.28;8302663;28;20132;-75
2022/08/19 17:37:41;;;;;;;27.35;16.63;;;;;;;27.20;64.89;98757.25;8311639;28;20046;-75
2022/08/19 17:41:43;;;;;;;23.40;16.35;;;;;;;27.07;65.20;98753.53;8310553;28;20092;-76
2022/08/19 17:45:44;;;;;;;19.38;16.02;;;;;;;26.98;65.56;98750.56;8294594;28;20050;-76
2022/08/19 17:49:45;;;;;;;18.98;15.23;;;;;;;26.82;66.23;98754.03;8303573;28;20564;-76
2022/08/19 17:53:46;;;;;;;25.05;16.10;;;;;;;26.59;66.84;98767.16;8294909;28;20427;-75
2022/08/19 17:57:47;;;;;;;25.73;16.30;;;;;;;26.46;67.52;98776.06;8302535;28;20041;-76
2022/08/19 18:01:48;;;;;;;23.02;16.42;;;;;;;26.36;67.72;98785.34;8300471;28;20804;-76
2022/08/19 18:05:49;;;;;;;21.48;17.33;;;;;;;26.27;68.15;98787.88;8332343;28;20058;-76
2022/08/19 18:09:51;;;;;;;25.08;15.95;;;;;;;26.24;68.31;98797.03;8332395;28;20057;-75
2022/08/19 18:13:52;;;;;;;24.13;16.23;;;;;;;26.18;68.29;98798.66;8332643;28;20071;-76
2022/08/19 18:17:53;;;;;;;21.50;15.68;;;;;;;26.13;68.40;98804.69;8352173;28;20127;-75
2022/08/19 18:21:54;;;;;;;22.20;17.40;;;;;;;26.07;68.27;98786.97;8364014;28;20037;-75
2022/08/19 18:25:56;;;;;;;20.80;15.95;;;;;;;25.99;68.35;98802.16;8350347;28;20040;-75
2022/08/19 18:29:57;;;;;;;25.05;16.63;;;;;;;25.87;68.98;98805.47;8343649;28;20052;-76
2022/08/19 18:33:59;;;;;;;31.80;17.98;;;;;;;25.71;69.76;98802.56;8343552;28;20037;-75
2022/08/19 18:49:02;;;;;;;26.33;18.38;;;;;;;25.61;70.52;98798.75;8340095;28;20037;-75
2022/08/19 18:51:01;;;;;;;24.17;18.25;;;;;;;25.38;71.66;98796.66;8342075;28;20041;-74
2022/08/19 18:55:04;;;;;;;26.92;18.52;;;;;;;25.32;71.81;98814.13;8321801;28;20041;-75
2022/08/19 18:59:05;;;;;;;24.42;18.98;;;;;;;25.23;72.08;98823.69;8351018;28;20037;-75
2022/08/19 19:03:07;;;;;;;28.52;19.15;;;;;;;25.19;72.43;98822.19;8317170;28;20072;-75
2022/08/19 19:07:08;;;;;;;28.13;19.55;;;;;;;25.13;72.69;98818.28;8343214;28;20045;-75
2022/08/19 19:11:09;;;;;;;26.52;18.38;;;;;;;25.13;72.44;98829.34;8348314;28;20041;-76
2022/08/19 19:15:11;;;;;;;23.65;17.33;;;;;;;25.13;71.86;98837.63;8345901;28;20033;-76
2022/08/19 19:19:14;;;;;;;22.33;16.25;;;;;;;25.09;71.34;98845.19;8345790;28;20136;-75
2022/08/19 19:23:15;;;;;;;24.60;15.77;;;;;;;25.08;71.26;98849.16;8345948;28;20040;-75
2022/08/19 19:27:19;;;;;;;23.65;15.70;;;;;;;25.06;71.44;98846.03;8348495;28;20046;-75